Hovedside
METAR-TAF:

METAR-TAF

Lufthavner :

Åbo, Finland

Åbo lufthavn

breddegrad: 60-31N, lengdegrad: 022-16E, høyde over havet: 49 m

Gjeldene værobservasjon

Denne rapporten ble laget for 5 minutter siden, klokken 13:50 UTC
Vind 7 kt fra Nord
Temperatur -6°C
Luftfuktighet 68%
Trykk 1036 hPa
Sikt 10 km eller mer

METAR: EFTU 251350Z AUTO 01007KT 9999 SCT061/// BKN078/// M06/M11 Q1036

Tid: 15:55 (13:55 UTC)

Varsel

Denne rapporten ble laget for 2 timer og 27 minutter siden, klokken 11:28 UTC
Varsel gyldig fra 25. klokken 12 UTC til 26. klokken 12 UTC
Vind 6 kt fra Nord
Sikt 10 km eller mer
Få skyer i en høyde av 3500 ft
Midlertidig
fra 25. klokken 12 UTC til 25. klokken 14 UTC
Sikt: 4000 m
lett snø
Midlertidig
fra 25. klokken 20 UTC til 26. klokken 12 UTC
Sikt: 4000 m
lett snø

TAF: EFTU 251128Z 2512/2612 36006KT 9999 FEW035 TEMPO 2512/2514 4000 -SN TEMPO 2520/2612 4000 -SN

Værobservasjoner og værvarsel for over 4000 flyplasser (METAR- og TAF-rapporter).

Tilgjengelige stasjoner er representert av de røde og gule prikkene på kartet.

Hold musepekeren over prikken for å se navnet på stasjonen.

Klikk så for å se værobservasjoner og -varsler.

For å forandre kartet kan du klikke på den grønne knappen med svart kryss for å zoome inn, på den grønne knappen med strek for å zoome ut, eller på de grønne pilene for å se tilstøtende kart.


METAR-TAF: